sensor_id;sensor_type;location;lat;lon;timestamp;P1;durP1;ratioP1;P2;durP2;ratioP2
43998;SDS011;51319;52.162;5.302;2022-08-25T00:01:34;16.30;;;13.43;;
43998;SDS011;51319;52.162;5.302;2022-08-25T00:04:03;14.93;;;13.32;;
43998;SDS011;51319;52.162;5.302;2022-08-25T00:06:31;17.80;;;14.25;;
43998;SDS011;51319;52.162;5.302;2022-08-25T00:09:00;17.08;;;14.50;;
43998;SDS011;51319;52.162;5.302;2022-08-25T00:11:28;16.02;;;14.32;;
43998;SDS011;51319;52.162;5.302;2022-08-25T00:13:57;16.77;;;14.90;;
43998;SDS011;51319;52.162;5.302;2022-08-25T00:16:30;22.25;;;15.68;;
43998;SDS011;51319;52.162;5.302;2022-08-25T00:18:58;20.65;;;15.85;;
43998;SDS011;51319;52.162;5.302;2022-08-25T00:21:27;17.55;;;14.48;;
43998;SDS011;51319;52.162;5.302;2022-08-25T00:23:56;22.08;;;15.27;;
43998;SDS011;51319;52.162;5.302;2022-08-25T00:26:22;17.75;;;15.13;;
43998;SDS011;51319;52.162;5.302;2022-08-25T00:28:49;17.70;;;15.73;;
43998;SDS011;51319;52.162;5.302;2022-08-25T00:31:19;16.95;;;15.27;;
43998;SDS011;51319;52.162;5.302;2022-08-25T00:33:48;17.40;;;15.43;;
43998;SDS011;51319;52.162;5.302;2022-08-25T00:36:15;23.75;;;16.60;;
43998;SDS011;51319;52.162;5.302;2022-08-25T00:38:44;17.77;;;15.85;;
43998;SDS011;51319;52.162;5.302;2022-08-25T00:41:12;20.85;;;16.35;;
43998;SDS011;51319;52.162;5.302;2022-08-25T00:46:07;18.73;;;15.88;;
43998;SDS011;51319;52.162;5.302;2022-08-25T00:48:34;24.65;;;17.30;;
43998;SDS011;51319;52.162;5.302;2022-08-25T00:51:02;19.95;;;17.67;;
43998;SDS011;51319;52.162;5.302;2022-08-25T00:53:31;19.35;;;17.30;;
43998;SDS011;51319;52.162;5.302;2022-08-25T00:55:58;20.33;;;17.20;;
43998;SDS011;51319;52.162;5.302;2022-08-25T00:58:25;21.60;;;17.95;;
43998;SDS011;51319;52.162;5.302;2022-08-25T01:03:23;19.42;;;17.42;;
43998;SDS011;51319;52.162;5.302;2022-08-25T01:06:00;20.15;;;17.75;;
43998;SDS011;51319;52.162;5.302;2022-08-25T01:08:29;19.55;;;17.50;;
43998;SDS011;51319;52.162;5.302;2022-08-25T01:10:58;19.88;;;16.85;;
43998;SDS011;51319;52.162;5.302;2022-08-25T01:13:31;19.95;;;17.98;;
43998;SDS011;51319;52.162;5.302;2022-08-25T01:16:10;21.10;;;18.67;;
43998;SDS011;51319;52.162;5.302;2022-08-25T01:18:43;29.83;;;18.38;;
43998;SDS011;51319;52.162;5.302;2022-08-25T01:21:13;21.42;;;18.83;;
43998;SDS011;51319;52.162;5.302;2022-08-25T01:23:40;22.85;;;19.70;;
43998;SDS011;51319;52.162;5.302;2022-08-25T01:28:42;25.15;;;19.80;;
43998;SDS011;51319;52.162;5.302;2022-08-25T01:31:29;20.60;;;18.48;;
43998;SDS011;51319;52.162;5.302;2022-08-25T01:33:56;21.65;;;18.90;;
43998;SDS011;51319;52.162;5.302;2022-08-25T01:36:23;21.08;;;19.17;;
43998;SDS011;51319;52.162;5.302;2022-08-25T01:38:50;20.30;;;18.30;;
43998;SDS011;51319;52.162;5.302;2022-08-25T01:44:06;20.83;;;18.67;;
43998;SDS011;51319;52.162;5.302;2022-08-25T01:46:41;22.13;;;19.77;;
43998;SDS011;51319;52.162;5.302;2022-08-25T01:49:07;20.63;;;18.45;;
43998;SDS011;51319;52.162;5.302;2022-08-25T01:51:42;22.05;;;19.10;;
43998;SDS011;51319;52.162;5.302;2022-08-25T01:54:12;21.52;;;18.55;;
43998;SDS011;51319;52.162;5.302;2022-08-25T01:56:38;22.08;;;19.60;;
43998;SDS011;51319;52.162;5.302;2022-08-25T01:59:04;21.60;;;19.30;;
43998;SDS011;51319;52.162;5.302;2022-08-25T02:01:30;21.67;;;19.58;;
43998;SDS011;51319;52.162;5.302;2022-08-25T02:03:56;21.88;;;19.65;;
43998;SDS011;51319;52.162;5.302;2022-08-25T02:06:26;23.00;;;19.58;;
43998;SDS011;51319;52.162;5.302;2022-08-25T02:08:59;21.88;;;19.63;;
43998;SDS011;51319;52.162;5.302;2022-08-25T02:11:29;20.83;;;18.67;;
43998;SDS011;51319;52.162;5.302;2022-08-25T02:13:56;21.35;;;19.08;;
43998;SDS011;51319;52.162;5.302;2022-08-25T02:16:25;27.05;;;19.23;;
43998;SDS011;51319;52.162;5.302;2022-08-25T02:18:55;25.38;;;20.17;;
43998;SDS011;51319;52.162;5.302;2022-08-25T02:21:22;20.77;;;18.50;;
43998;SDS011;51319;52.162;5.302;2022-08-25T02:23:48;21.55;;;19.33;;
43998;SDS011;51319;52.162;5.302;2022-08-25T02:26:15;21.88;;;19.75;;
43998;SDS011;51319;52.162;5.302;2022-08-25T02:28:44;23.42;;;19.30;;
43998;SDS011;51319;52.162;5.302;2022-08-25T02:31:11;23.65;;;20.00;;
43998;SDS011;51319;52.162;5.302;2022-08-25T02:33:38;21.67;;;19.48;;
43998;SDS011;51319;52.162;5.302;2022-08-25T02:36:04;21.85;;;19.58;;
43998;SDS011;51319;52.162;5.302;2022-08-25T02:38:32;21.23;;;19.17;;
43998;SDS011;51319;52.162;5.302;2022-08-25T02:40:58;20.23;;;17.67;;
43998;SDS011;51319;52.162;5.302;2022-08-25T02:43:25;18.35;;;16.45;;
43998;SDS011;51319;52.162;5.302;2022-08-25T02:45:53;16.85;;;15.07;;
43998;SDS011;51319;52.162;5.302;2022-08-25T02:48:20;16.77;;;15.05;;
43998;SDS011;51319;52.162;5.302;2022-08-25T02:50:48;17.77;;;15.05;;
43998;SDS011;51319;52.162;5.302;2022-08-25T02:53:19;15.95;;;13.23;;
43998;SDS011;51319;52.162;5.302;2022-08-25T02:55:45;16.25;;;12.40;;
43998;SDS011;51319;52.162;5.302;2022-08-25T02:58:13;13.32;;;12.00;;
43998;SDS011;51319;52.162;5.302;2022-08-25T03:00:39;13.27;;;11.15;;
43998;SDS011;51319;52.162;5.302;2022-08-25T03:03:08;11.60;;;10.50;;
43998;SDS011;51319;52.162;5.302;2022-08-25T03:05:34;12.63;;;10.05;;
43998;SDS011;51319;52.162;5.302;2022-08-25T03:08:00;14.35;;;9.93;;
43998;SDS011;51319;52.162;5.302;2022-08-25T03:10:27;11.77;;;9.75;;
43998;SDS011;51319;52.162;5.302;2022-08-25T03:12:53;12.70;;;9.40;;
43998;SDS011;51319;52.162;5.302;2022-08-25T03:15:19;10.23;;;8.60;;
43998;SDS011;51319;52.162;5.302;2022-08-25T03:17:46;15.73;;;8.57;;
43998;SDS011;51319;52.162;5.302;2022-08-25T03:20:15;13.75;;;8.48;;
43998;SDS011;51319;52.162;5.302;2022-08-25T03:22:42;10.60;;;8.05;;
43998;SDS011;51319;52.162;5.302;2022-08-25T03:25:09;8.82;;;7.93;;
43998;SDS011;51319;52.162;5.302;2022-08-25T03:27:53;8.60;;;7.82;;
43998;SDS011;51319;52.162;5.302;2022-08-25T03:30:20;10.90;;;7.63;;
43998;SDS011;51319;52.162;5.302;2022-08-25T03:32:46;9.82;;;7.90;;
43998;SDS011;51319;52.162;5.302;2022-08-25T03:35:13;9.20;;;7.85;;
43998;SDS011;51319;52.162;5.302;2022-08-25T03:37:39;8.50;;;7.30;;
43998;SDS011;51319;52.162;5.302;2022-08-25T03:40:06;12.18;;;7.70;;
43998;SDS011;51319;52.162;5.302;2022-08-25T03:42:41;8.73;;;6.78;;
43998;SDS011;51319;52.162;5.302;2022-08-25T03:45:10;9.40;;;7.40;;
43998;SDS011;51319;52.162;5.302;2022-08-25T03:47:38;8.88;;;7.00;;
43998;SDS011;51319;52.162;5.302;2022-08-25T03:50:05;8.68;;;6.60;;
43998;SDS011;51319;52.162;5.302;2022-08-25T03:52:33;10.88;;;6.45;;
43998;SDS011;51319;52.162;5.302;2022-08-25T03:55:08;7.88;;;6.00;;
43998;SDS011;51319;52.162;5.302;2022-08-25T03:57:36;10.13;;;5.97;;
43998;SDS011;51319;52.162;5.302;2022-08-25T04:00:06;9.18;;;5.88;;
43998;SDS011;51319;52.162;5.302;2022-08-25T04:02:34;9.57;;;5.97;;
43998;SDS011;51319;52.162;5.302;2022-08-25T04:05:00;6.53;;;5.78;;
43998;SDS011;51319;52.162;5.302;2022-08-25T04:07:27;11.23;;;5.97;;
43998;SDS011;51319;52.162;5.302;2022-08-25T04:09:53;14.55;;;5.75;;
43998;SDS011;51319;52.162;5.302;2022-08-25T04:12:20;13.15;;;6.15;;
43998;SDS011;51319;52.162;5.302;2022-08-25T04:14:47;8.55;;;5.82;;
43998;SDS011;51319;52.162;5.302;2022-08-25T04:17:14;8.10;;;6.07;;
43998;SDS011;51319;52.162;5.302;2022-08-25T04:19:40;16.35;;;6.00;;
43998;SDS011;51319;52.162;5.302;2022-08-25T04:22:06;11.25;;;6.75;;
43998;SDS011;51319;52.162;5.302;2022-08-25T04:24:32;10.05;;;6.28;;
43998;SDS011;51319;52.162;5.302;2022-08-25T04:26:59;13.95;;;6.00;;
43998;SDS011;51319;52.162;5.302;2022-08-25T04:29:26;8.45;;;5.72;;
43998;SDS011;51319;52.162;5.302;2022-08-25T04:31:53;9.63;;;5.88;;
43998;SDS011;51319;52.162;5.302;2022-08-25T04:34:21;8.18;;;6.13;;
43998;SDS011;51319;52.162;5.302;2022-08-25T04:37:00;6.78;;;5.43;;
43998;SDS011;51319;52.162;5.302;2022-08-25T04:39:28;12.05;;;6.05;;
43998;SDS011;51319;52.162;5.302;2022-08-25T04:41:55;12.07;;;6.00;;
43998;SDS011;51319;52.162;5.302;2022-08-25T04:44:23;10.00;;;5.45;;
43998;SDS011;51319;52.162;5.302;2022-08-25T04:46:50;12.93;;;5.50;;
43998;SDS011;51319;52.162;5.302;2022-08-25T04:49:16;6.75;;;4.90;;
43998;SDS011;51319;52.162;5.302;2022-08-25T04:51:43;8.07;;;6.07;;
43998;SDS011;51319;52.162;5.302;2022-08-25T04:54:10;14.70;;;5.63;;
43998;SDS011;51319;52.162;5.302;2022-08-25T04:56:41;6.07;;;5.18;;
43998;SDS011;51319;52.162;5.302;2022-08-25T04:59:09;13.40;;;5.07;;
43998;SDS011;51319;52.162;5.302;2022-08-25T05:01:37;10.30;;;5.03;;
43998;SDS011;51319;52.162;5.302;2022-08-25T05:04:06;16.98;;;5.70;;
43998;SDS011;51319;52.162;5.302;2022-08-25T05:06:39;8.23;;;5.15;;
43998;SDS011;51319;52.162;5.302;2022-08-25T05:09:06;9.32;;;6.10;;
43998;SDS011;51319;52.162;5.302;2022-08-25T05:11:33;10.82;;;5.07;;
43998;SDS011;51319;52.162;5.302;2022-08-25T05:14:00;8.65;;;5.30;;
43998;SDS011;51319;52.162;5.302;2022-08-25T05:16:26;9.68;;;5.03;;
43998;SDS011;51319;52.162;5.302;2022-08-25T05:18:53;7.35;;;4.78;;
43998;SDS011;51319;52.162;5.302;2022-08-25T05:21:21;11.88;;;5.35;;
43998;SDS011;51319;52.162;5.302;2022-08-25T05:23:52;12.57;;;5.18;;
43998;SDS011;51319;52.162;5.302;2022-08-25T05:26:23;7.82;;;4.55;;
43998;SDS011;51319;52.162;5.302;2022-08-25T05:28:52;9.85;;;5.28;;
43998;SDS011;51319;52.162;5.302;2022-08-25T05:31:19;6.97;;;4.57;;
43998;SDS011;51319;52.162;5.302;2022-08-25T05:33:47;8.55;;;4.32;;
43998;SDS011;51319;52.162;5.302;2022-08-25T05:36:14;7.70;;;4.88;;
43998;SDS011;51319;52.162;5.302;2022-08-25T05:38:42;10.10;;;4.63;;
43998;SDS011;51319;52.162;5.302;2022-08-25T05:41:10;8.25;;;4.10;;
43998;SDS011;51319;52.162;5.302;2022-08-25T05:43:38;8.43;;;4.18;;
43998;SDS011;51319;52.162;5.302;2022-08-25T05:46:06;6.07;;;3.80;;
43998;SDS011;51319;52.162;5.302;2022-08-25T05:48:33;12.77;;;4.40;;
43998;SDS011;51319;52.162;5.302;2022-08-25T05:51:00;11.38;;;3.67;;
43998;SDS011;51319;52.162;5.302;2022-08-25T05:53:28;8.10;;;3.80;;
43998;SDS011;51319;52.162;5.302;2022-08-25T05:55:59;14.75;;;3.92;;
43998;SDS011;51319;52.162;5.302;2022-08-25T05:58:27;11.57;;;4.22;;
43998;SDS011;51319;52.162;5.302;2022-08-25T06:00:55;4.95;;;3.85;;
43998;SDS011;51319;52.162;5.302;2022-08-25T06:03:22;7.53;;;3.40;;
43998;SDS011;51319;52.162;5.302;2022-08-25T06:05:48;11.20;;;3.55;;
43998;SDS011;51319;52.162;5.302;2022-08-25T06:08:15;10.73;;;3.33;;
43998;SDS011;51319;52.162;5.302;2022-08-25T06:10:41;4.15;;;3.08;;
43998;SDS011;51319;52.162;5.302;2022-08-25T06:13:07;8.18;;;3.33;;
43998;SDS011;51319;52.162;5.302;2022-08-25T06:15:34;6.40;;;3.42;;
43998;SDS011;51319;52.162;5.302;2022-08-25T06:18:00;10.98;;;3.40;;
43998;SDS011;51319;52.162;5.302;2022-08-25T06:20:29;5.70;;;2.95;;
43998;SDS011;51319;52.162;5.302;2022-08-25T06:22:56;6.60;;;3.30;;
43998;SDS011;51319;52.162;5.302;2022-08-25T06:25:23;9.18;;;3.30;;
43998;SDS011;51319;52.162;5.302;2022-08-25T06:27:50;8.57;;;3.42;;
43998;SDS011;51319;52.162;5.302;2022-08-25T06:30:18;5.20;;;3.17;;
43998;SDS011;51319;52.162;5.302;2022-08-25T06:32:54;4.30;;;2.78;;
43998;SDS011;51319;52.162;5.302;2022-08-25T06:35:20;8.50;;;3.22;;
43998;SDS011;51319;52.162;5.302;2022-08-25T06:37:47;7.13;;;3.13;;
43998;SDS011;51319;52.162;5.302;2022-08-25T06:40:13;9.52;;;3.33;;
43998;SDS011;51319;52.162;5.302;2022-08-25T06:42:40;11.85;;;3.28;;
43998;SDS011;51319;52.162;5.302;2022-08-25T06:45:07;6.78;;;3.40;;
43998;SDS011;51319;52.162;5.302;2022-08-25T06:47:34;8.32;;;3.40;;
43998;SDS011;51319;52.162;5.302;2022-08-25T06:50:00;9.35;;;3.22;;
43998;SDS011;51319;52.162;5.302;2022-08-25T06:52:28;12.15;;;3.20;;
43998;SDS011;51319;52.162;5.302;2022-08-25T06:54:55;8.63;;;3.30;;
43998;SDS011;51319;52.162;5.302;2022-08-25T06:57:21;7.22;;;3.55;;
43998;SDS011;51319;52.162;5.302;2022-08-25T06:59:47;7.40;;;3.08;;
43998;SDS011;51319;52.162;5.302;2022-08-25T07:02:18;10.05;;;3.00;;
43998;SDS011;51319;52.162;5.302;2022-08-25T07:04:47;10.75;;;3.25;;
43998;SDS011;51319;52.162;5.302;2022-08-25T07:07:13;7.53;;;3.33;;
43998;SDS011;51319;52.162;5.302;2022-08-25T07:09:40;8.32;;;2.83;;
43998;SDS011;51319;52.162;5.302;2022-08-25T07:12:06;6.85;;;3.15;;
43998;SDS011;51319;52.162;5.302;2022-08-25T07:14:32;9.48;;;3.10;;
43998;SDS011;51319;52.162;5.302;2022-08-25T07:17:01;12.77;;;3.10;;
43998;SDS011;51319;52.162;5.302;2022-08-25T07:19:35;6.88;;;2.70;;
43998;SDS011;51319;52.162;5.302;2022-08-25T07:22:01;10.32;;;3.10;;
43998;SDS011;51319;52.162;5.302;2022-08-25T07:24:28;8.88;;;3.00;;
43998;SDS011;51319;52.162;5.302;2022-08-25T07:26:54;8.52;;;2.80;;
43998;SDS011;51319;52.162;5.302;2022-08-25T07:29:21;8.32;;;3.20;;
43998;SDS011;51319;52.162;5.302;2022-08-25T07:31:58;5.82;;;2.42;;
43998;SDS011;51319;52.162;5.302;2022-08-25T07:34:25;12.52;;;2.60;;
43998;SDS011;51319;52.162;5.302;2022-08-25T07:37:17;5.80;;;2.28;;
43998;SDS011;51319;52.162;5.302;2022-08-25T07:40:05;9.23;;;2.85;;
43998;SDS011;51319;52.162;5.302;2022-08-25T07:42:32;5.53;;;2.88;;
43998;SDS011;51319;52.162;5.302;2022-08-25T07:44:58;11.55;;;2.95;;
43998;SDS011;51319;52.162;5.302;2022-08-25T07:47:24;11.90;;;2.88;;
43998;SDS011;51319;52.162;5.302;2022-08-25T07:49:51;10.10;;;2.70;;
43998;SDS011;51319;52.162;5.302;2022-08-25T07:52:17;10.30;;;2.65;;
43998;SDS011;51319;52.162;5.302;2022-08-25T07:54:44;5.85;;;2.58;;
43998;SDS011;51319;52.162;5.302;2022-08-25T07:57:12;4.55;;;2.45;;
43998;SDS011;51319;52.162;5.302;2022-08-25T07:59:39;10.05;;;2.60;;
43998;SDS011;51319;52.162;5.302;2022-08-25T08:02:11;7.38;;;2.30;;
43998;SDS011;51319;52.162;5.302;2022-08-25T08:04:44;9.43;;;2.58;;
43998;SDS011;51319;52.162;5.302;2022-08-25T08:07:14;9.52;;;3.47;;
43998;SDS011;51319;52.162;5.302;2022-08-25T08:09:42;8.45;;;2.22;;
43998;SDS011;51319;52.162;5.302;2022-08-25T08:12:08;7.60;;;2.38;;
43998;SDS011;51319;52.162;5.302;2022-08-25T08:14:34;9.30;;;2.20;;
43998;SDS011;51319;52.162;5.302;2022-08-25T08:17:05;11.98;;;2.38;;
43998;SDS011;51319;52.162;5.302;2022-08-25T08:19:33;9.18;;;2.60;;
43998;SDS011;51319;52.162;5.302;2022-08-25T08:22:00;7.53;;;2.63;;
43998;SDS011;51319;52.162;5.302;2022-08-25T08:24:28;5.35;;;2.20;;
43998;SDS011;51319;52.162;5.302;2022-08-25T08:27:10;8.60;;;2.15;;
43998;SDS011;51319;52.162;5.302;2022-08-25T08:29:40;8.38;;;2.40;;
43998;SDS011;51319;52.162;5.302;2022-08-25T08:32:08;4.78;;;1.88;;
43998;SDS011;51319;52.162;5.302;2022-08-25T08:34:38;6.55;;;1.80;;
43998;SDS011;51319;52.162;5.302;2022-08-25T08:37:06;6.70;;;2.05;;
43998;SDS011;51319;52.162;5.302;2022-08-25T08:39:35;4.40;;;2.42;;
43998;SDS011;51319;52.162;5.302;2022-08-25T08:42:18;4.20;;;1.80;;
43998;SDS011;51319;52.162;5.302;2022-08-25T08:50:23;3.72;;;1.77;;
43998;SDS011;51319;52.162;5.302;2022-08-25T08:53:03;8.63;;;2.25;;
43998;SDS011;51319;52.162;5.302;2022-08-25T08:55:38;5.15;;;2.05;;
43998;SDS011;51319;52.162;5.302;2022-08-25T08:58:24;3.08;;;1.73;;
43998;SDS011;51319;52.162;5.302;2022-08-25T09:01:02;7.13;;;2.08;;
43998;SDS011;51319;52.162;5.302;2022-08-25T09:03:32;7.40;;;1.92;;
43998;SDS011;51319;52.162;5.302;2022-08-25T09:06:24;7.90;;;2.00;;
43998;SDS011;51319;52.162;5.302;2022-08-25T09:08:56;7.45;;;1.98;;
43998;SDS011;51319;52.162;5.302;2022-08-25T09:17:05;5.07;;;1.92;;
43998;SDS011;51319;52.162;5.302;2022-08-25T09:20:07;2.67;;;1.60;;
43998;SDS011;51319;52.162;5.302;2022-08-25T09:28:19;4.85;;;1.40;;
43998;SDS011;51319;52.162;5.302;2022-08-25T09:31:33;4.38;;;1.52;;
43998;SDS011;51319;52.162;5.302;2022-08-25T09:34:04;9.27;;;2.00;;
43998;SDS011;51319;52.162;5.302;2022-08-25T09:36:42;3.88;;;1.73;;
43998;SDS011;51319;52.162;5.302;2022-08-25T09:39:09;18.25;;;2.20;;
43998;SDS011;51319;52.162;5.302;2022-08-25T09:41:44;3.85;;;1.67;;
43998;SDS011;51319;52.162;5.302;2022-08-25T09:44:18;8.77;;;2.03;;
43998;SDS011;51319;52.162;5.302;2022-08-25T09:46:54;8.23;;;1.70;;
43998;SDS011;51319;52.162;5.302;2022-08-25T09:49:30;2.50;;;1.35;;
43998;SDS011;51319;52.162;5.302;2022-08-25T09:52:16;2.95;;;1.45;;
43998;SDS011;51319;52.162;5.302;2022-08-25T09:54:52;9.07;;;1.45;;
43998;SDS011;51319;52.162;5.302;2022-08-25T09:57:26;6.15;;;1.50;;
43998;SDS011;51319;52.162;5.302;2022-08-25T09:59:53;5.07;;;1.45;;
43998;SDS011;51319;52.162;5.302;2022-08-25T10:04:52;6.07;;;1.50;;
43998;SDS011;51319;52.162;5.302;2022-08-25T10:09:53;5.50;;;1.50;;
43998;SDS011;51319;52.162;5.302;2022-08-25T10:12:56;7.70;;;1.42;;
43998;SDS011;51319;52.162;5.302;2022-08-25T10:15:21;8.75;;;1.85;;
43998;SDS011;51319;52.162;5.302;2022-08-25T10:18:00;6.40;;;1.50;;
43998;SDS011;51319;52.162;5.302;2022-08-25T10:23:43;3.17;;;1.35;;
43998;SDS011;51319;52.162;5.302;2022-08-25T10:26:19;1.63;;;1.13;;
43998;SDS011;51319;52.162;5.302;2022-08-25T10:31:47;7.63;;;1.63;;
43998;SDS011;51319;52.162;5.302;2022-08-25T10:34:36;6.70;;;1.35;;
43998;SDS011;51319;52.162;5.302;2022-08-25T10:37:33;4.35;;;1.70;;
43998;SDS011;51319;52.162;5.302;2022-08-25T10:40:20;5.50;;;1.27;;
43998;SDS011;51319;52.162;5.302;2022-08-25T10:43:15;6.07;;;1.35;;
43998;SDS011;51319;52.162;5.302;2022-08-25T10:48:51;12.38;;;2.00;;
43998;SDS011;51319;52.162;5.302;2022-08-25T10:54:25;3.97;;;1.50;;
43998;SDS011;51319;52.162;5.302;2022-08-25T10:59:44;6.93;;;1.50;;
43998;SDS011;51319;52.162;5.302;2022-08-25T11:11:51;5.38;;;2.22;;
43998;SDS011;51319;52.162;5.302;2022-08-25T11:19:23;2.28;;;1.50;;
43998;SDS011;51319;52.162;5.302;2022-08-25T11:28:28;8.15;;;3.53;;
43998;SDS011;51319;52.162;5.302;2022-08-25T11:30:48;12.18;;;1.58;;
43998;SDS011;51319;52.162;5.302;2022-08-25T11:33:16;4.20;;;1.07;;
43998;SDS011;51319;52.162;5.302;2022-08-25T11:35:48;4.22;;;1.48;;
43998;SDS011;51319;52.162;5.302;2022-08-25T11:41:19;1.85;;;1.30;;
43998;SDS011;51319;52.162;5.302;2022-08-25T11:52:59;3.65;;;1.10;;
43998;SDS011;51319;52.162;5.302;2022-08-25T11:56:11;5.07;;;1.10;;
43998;SDS011;51319;52.162;5.302;2022-08-25T11:58:57;5.07;;;1.42;;
43998;SDS011;51319;52.162;5.302;2022-08-25T12:07:14;3.38;;;1.15;;
43998;SDS011;51319;52.162;5.302;2022-08-25T12:21:12;5.15;;;1.38;;
43998;SDS011;51319;52.162;5.302;2022-08-25T12:24:03;3.60;;;1.30;;
43998;SDS011;51319;52.162;5.302;2022-08-25T12:26:29;4.47;;;1.40;;
43998;SDS011;51319;52.162;5.302;2022-08-25T12:29:15;3.38;;;1.15;;
43998;SDS011;51319;52.162;5.302;2022-08-25T12:32:11;4.80;;;1.50;;
43998;SDS011;51319;52.162;5.302;2022-08-25T12:40:26;3.83;;;1.25;;
43998;SDS011;51319;52.162;5.302;2022-08-25T12:51:51;2.65;;;1.05;;
43998;SDS011;51319;52.162;5.302;2022-08-25T12:54:46;2.83;;;1.15;;
43998;SDS011;51319;52.162;5.302;2022-08-25T12:57:27;4.90;;;1.63;;
43998;SDS011;51319;52.162;5.302;2022-08-25T13:00:44;3.85;;;1.27;;
43998;SDS011;51319;52.162;5.302;2022-08-25T13:03:40;3.90;;;1.33;;
43998;SDS011;51319;52.162;5.302;2022-08-25T13:06:17;6.75;;;1.20;;
43998;SDS011;51319;52.162;5.302;2022-08-25T13:12:25;3.58;;;1.20;;
43998;SDS011;51319;52.162;5.302;2022-08-25T13:14:54;4.00;;;1.38;;
43998;SDS011;51319;52.162;5.302;2022-08-25T13:17:40;2.83;;;1.13;;
43998;SDS011;51319;52.162;5.302;2022-08-25T13:20:14;3.58;;;1.10;;
43998;SDS011;51319;52.162;5.302;2022-08-25T13:22:55;1.30;;;0.90;;
43998;SDS011;51319;52.162;5.302;2022-08-25T13:25:26;4.57;;;1.10;;
43998;SDS011;51319;52.162;5.302;2022-08-25T13:28:02;3.15;;;1.00;;
43998;SDS011;51319;52.162;5.302;2022-08-25T13:30:36;3.10;;;1.02;;
43998;SDS011;51319;52.162;5.302;2022-08-25T13:33:19;5.28;;;1.10;;
43998;SDS011;51319;52.162;5.302;2022-08-25T13:35:52;30.70;;;25.65;;
43998;SDS011;51319;52.162;5.302;2022-08-25T13:38:41;4.90;;;1.33;;
43998;SDS011;51319;52.162;5.302;2022-08-25T13:41:16;5.97;;;3.67;;
43998;SDS011;51319;52.162;5.302;2022-08-25T13:43:44;5.70;;;1.20;;
43998;SDS011;51319;52.162;5.302;2022-08-25T13:46:11;6.72;;;1.77;;
43998;SDS011;51319;52.162;5.302;2022-08-25T13:48:38;3.35;;;1.13;;
43998;SDS011;51319;52.162;5.302;2022-08-25T13:53:57;2.38;;;1.30;;
43998;SDS011;51319;52.162;5.302;2022-08-25T13:56:35;2.70;;;1.40;;
43998;SDS011;51319;52.162;5.302;2022-08-25T13:59:25;6.93;;;1.17;;
43998;SDS011;51319;52.162;5.302;2022-08-25T14:02:05;7.05;;;1.58;;
43998;SDS011;51319;52.162;5.302;2022-08-25T14:09:50;5.85;;;1.35;;
43998;SDS011;51319;52.162;5.302;2022-08-25T14:17:47;4.80;;;1.10;;
43998;SDS011;51319;52.162;5.302;2022-08-25T14:20:27;3.40;;;1.42;;
43998;SDS011;51319;52.162;5.302;2022-08-25T14:22:56;7.43;;;1.25;;
43998;SDS011;51319;52.162;5.302;2022-08-25T14:25:27;4.47;;;1.10;;
43998;SDS011;51319;52.162;5.302;2022-08-25T14:27:57;8.25;;;1.42;;
43998;SDS011;51319;52.162;5.302;2022-08-25T14:30:34;6.00;;;1.58;;
43998;SDS011;51319;52.162;5.302;2022-08-25T14:33:02;4.47;;;1.08;;
43998;SDS011;51319;52.162;5.302;2022-08-25T14:35:29;3.42;;;1.30;;
43998;SDS011;51319;52.162;5.302;2022-08-25T14:37:56;4.80;;;1.30;;
43998;SDS011;51319;52.162;5.302;2022-08-25T14:40:22;4.65;;;1.23;;
43998;SDS011;51319;52.162;5.302;2022-08-25T14:42:49;7.57;;;2.45;;
43998;SDS011;51319;52.162;5.302;2022-08-25T14:45:16;5.22;;;1.70;;
43998;SDS011;51319;52.162;5.302;2022-08-25T14:47:43;5.60;;;1.30;;
43998;SDS011;51319;52.162;5.302;2022-08-25T14:50:15;2.58;;;1.13;;
43998;SDS011;51319;52.162;5.302;2022-08-25T14:52:45;6.57;;;2.00;;
43998;SDS011;51319;52.162;5.302;2022-08-25T14:55:17;2.28;;;1.48;;
43998;SDS011;51319;52.162;5.302;2022-08-25T14:57:57;5.25;;;1.42;;
43998;SDS011;51319;52.162;5.302;2022-08-25T15:00:24;3.38;;;1.40;;
43998;SDS011;51319;52.162;5.302;2022-08-25T15:02:51;5.20;;;1.20;;
43998;SDS011;51319;52.162;5.302;2022-08-25T15:05:23;6.28;;;1.15;;
43998;SDS011;51319;52.162;5.302;2022-08-25T15:07:53;9.98;;;6.65;;
43998;SDS011;51319;52.162;5.302;2022-08-25T15:10:40;4.55;;;3.33;;
43998;SDS011;51319;52.162;5.302;2022-08-25T15:13:08;7.22;;;1.60;;
43998;SDS011;51319;52.162;5.302;2022-08-25T15:15:37;5.10;;;1.80;;
43998;SDS011;51319;52.162;5.302;2022-08-25T15:18:18;3.58;;;1.48;;
43998;SDS011;51319;52.162;5.302;2022-08-25T15:20:45;3.45;;;1.58;;
43998;SDS011;51319;52.162;5.302;2022-08-25T15:23:15;8.48;;;2.03;;
43998;SDS011;51319;52.162;5.302;2022-08-25T15:25:44;6.95;;;1.73;;
43998;SDS011;51319;52.162;5.302;2022-08-25T15:28:13;4.47;;;1.60;;
43998;SDS011;51319;52.162;5.302;2022-08-25T15:30:42;60.55;;;32.50;;
43998;SDS011;51319;52.162;5.302;2022-08-25T15:33:11;9.65;;;2.60;;
43998;SDS011;51319;52.162;5.302;2022-08-25T15:35:38;5.75;;;1.60;;
43998;SDS011;51319;52.162;5.302;2022-08-25T15:38:06;4.30;;;1.30;;
43998;SDS011;51319;52.162;5.302;2022-08-25T15:40:33;4.05;;;1.15;;
43998;SDS011;51319;52.162;5.302;2022-08-25T15:42:59;5.25;;;1.73;;
43998;SDS011;51319;52.162;5.302;2022-08-25T15:45:26;5.03;;;1.83;;
43998;SDS011;51319;52.162;5.302;2022-08-25T15:47:52;6.95;;;1.70;;
43998;SDS011;51319;52.162;5.302;2022-08-25T15:50:19;11.85;;;1.50;;
43998;SDS011;51319;52.162;5.302;2022-08-25T15:52:51;8.05;;;1.40;;
43998;SDS011;51319;52.162;5.302;2022-08-25T15:55:17;5.13;;;2.08;;
43998;SDS011;51319;52.162;5.302;2022-08-25T15:57:45;6.80;;;1.58;;
43998;SDS011;51319;52.162;5.302;2022-08-25T16:00:14;2.50;;;1.52;;
43998;SDS011;51319;52.162;5.302;2022-08-25T16:02:42;6.63;;;2.38;;
43998;SDS011;51319;52.162;5.302;2022-08-25T16:05:10;3.30;;;1.60;;
43998;SDS011;51319;52.162;5.302;2022-08-25T16:07:38;4.82;;;2.00;;
43998;SDS011;51319;52.162;5.302;2022-08-25T16:10:04;4.28;;;1.65;;
43998;SDS011;51319;52.162;5.302;2022-08-25T16:12:31;6.45;;;1.58;;
43998;SDS011;51319;52.162;5.302;2022-08-25T16:14:57;7.35;;;1.60;;
43998;SDS011;51319;52.162;5.302;2022-08-25T16:17:24;8.70;;;1.65;;
43998;SDS011;51319;52.162;5.302;2022-08-25T16:19:51;3.38;;;1.23;;
43998;SDS011;51319;52.162;5.302;2022-08-25T16:22:18;4.82;;;1.77;;
43998;SDS011;51319;52.162;5.302;2022-08-25T16:24:45;6.15;;;2.05;;
43998;SDS011;51319;52.162;5.302;2022-08-25T16:27:12;5.55;;;3.47;;
43998;SDS011;51319;52.162;5.302;2022-08-25T16:29:39;5.00;;;2.28;;
43998;SDS011;51319;52.162;5.302;2022-08-25T16:32:07;21.67;;;13.95;;
43998;SDS011;51319;52.162;5.302;2022-08-25T16:34:34;3.85;;;2.20;;
43998;SDS011;51319;52.162;5.302;2022-08-25T16:37:00;7.18;;;3.10;;
43998;SDS011;51319;52.162;5.302;2022-08-25T16:39:27;4.57;;;1.95;;
43998;SDS011;51319;52.162;5.302;2022-08-25T16:41:54;15.70;;;9.98;;
43998;SDS011;51319;52.162;5.302;2022-08-25T16:44:21;6.63;;;4.63;;
43998;SDS011;51319;52.162;5.302;2022-08-25T16:46:50;4.57;;;2.87;;
43998;SDS011;51319;52.162;5.302;2022-08-25T16:49:18;5.07;;;2.22;;
43998;SDS011;51319;52.162;5.302;2022-08-25T16:51:45;4.72;;;2.33;;
43998;SDS011;51319;52.162;5.302;2022-08-25T16:54:13;3.40;;;1.70;;
43998;SDS011;51319;52.162;5.302;2022-08-25T16:56:58;5.57;;;2.20;;
43998;SDS011;51319;52.162;5.302;2022-08-25T16:59:25;5.57;;;2.08;;
43998;SDS011;51319;52.162;5.302;2022-08-25T17:01:51;8.90;;;2.22;;
43998;SDS011;51319;52.162;5.302;2022-08-25T17:04:18;8.77;;;2.88;;
43998;SDS011;51319;52.162;5.302;2022-08-25T17:06:45;7.38;;;2.55;;
43998;SDS011;51319;52.162;5.302;2022-08-25T17:09:17;5.45;;;3.03;;
43998;SDS011;51319;52.162;5.302;2022-08-25T17:11:49;6.03;;;2.65;;